Terminal Aerodrome Forecast
Issued by NWS

Current Version | Previous Version | Graphics & Text | Print | Product List | Glossary On
Versions: 1 2 3 4 5 6 7 8 9 10 11 12 13 14 15 16 17 18 19 20 21
000
FTUS41 KILN 250929 AAA
TAFLCK
TAF AMD
KLCK 250929Z 2509/2606 16007KT P6SM VCSH SCT008 OVC012
      TEMPO 2509/2512 BKN008 OVC012
     FM251200 17006KT P6SM VCSH OVC015
     FM251400 20006KT P6SM VCSH OVC025
     FM252000 26008KT P6SM VCSH OVC025
     FM260000 29009KT P6SM OVC013=

USA.gov is the U.S. government's official web portal to all federal, state and local government web resources and services.